sensor_id;sensor_type;location;lat;lon;timestamp;temperature;humidity
48686;DHT22;34485;51.536;3.816;2022-11-09T00:01:16;12.50;99.90
48686;DHT22;34485;51.536;3.816;2022-11-09T00:03:42;12.50;99.90
48686;DHT22;34485;51.536;3.816;2022-11-09T00:06:07;12.60;99.90
48686;DHT22;34485;51.536;3.816;2022-11-09T00:08:35;12.60;99.90
48686;DHT22;34485;51.536;3.816;2022-11-09T00:11:03;12.60;99.90
48686;DHT22;34485;51.536;3.816;2022-11-09T00:13:29;12.60;99.90
48686;DHT22;34485;51.536;3.816;2022-11-09T00:15:58;12.60;99.90
48686;DHT22;34485;51.536;3.816;2022-11-09T00:18:24;12.70;99.90
48686;DHT22;34485;51.536;3.816;2022-11-09T00:20:50;12.60;99.90
48686;DHT22;34485;51.536;3.816;2022-11-09T00:23:15;12.60;99.90
48686;DHT22;34485;51.536;3.816;2022-11-09T00:25:41;12.60;99.90
48686;DHT22;34485;51.536;3.816;2022-11-09T00:28:07;12.60;99.90
48686;DHT22;34485;51.536;3.816;2022-11-09T00:30:32;12.60;99.90
48686;DHT22;34485;51.536;3.816;2022-11-09T00:32:58;12.60;99.90
48686;DHT22;34485;51.536;3.816;2022-11-09T00:35:24;12.60;99.90
48686;DHT22;34485;51.536;3.816;2022-11-09T00:37:49;12.60;99.90
48686;DHT22;34485;51.536;3.816;2022-11-09T00:40:15;12.60;99.90
48686;DHT22;34485;51.536;3.816;2022-11-09T00:45:07;12.60;99.90
48686;DHT22;34485;51.536;3.816;2022-11-09T00:47:32;12.60;99.90
48686;DHT22;34485;51.536;3.816;2022-11-09T00:49:58;12.60;99.90
48686;DHT22;34485;51.536;3.816;2022-11-09T00:52:24;12.50;99.90
48686;DHT22;34485;51.536;3.816;2022-11-09T00:54:49;12.50;99.90
48686;DHT22;34485;51.536;3.816;2022-11-09T00:57:15;12.50;99.90
48686;DHT22;34485;51.536;3.816;2022-11-09T00:59:41;12.40;99.90
48686;DHT22;34485;51.536;3.816;2022-11-09T01:02:07;12.50;99.90
48686;DHT22;34485;51.536;3.816;2022-11-09T01:04:32;12.50;99.90
48686;DHT22;34485;51.536;3.816;2022-11-09T01:06:58;12.50;99.90
48686;DHT22;34485;51.536;3.816;2022-11-09T01:09:24;12.50;99.90
48686;DHT22;34485;51.536;3.816;2022-11-09T01:11:49;12.50;99.90
48686;DHT22;34485;51.536;3.816;2022-11-09T01:14:15;12.50;99.90
48686;DHT22;34485;51.536;3.816;2022-11-09T01:16:40;12.50;99.90
48686;DHT22;34485;51.536;3.816;2022-11-09T01:19:06;12.50;99.90
48686;DHT22;34485;51.536;3.816;2022-11-09T01:21:31;12.50;99.90
48686;DHT22;34485;51.536;3.816;2022-11-09T01:23:57;12.50;99.90
48686;DHT22;34485;51.536;3.816;2022-11-09T01:26:23;12.60;99.90
48686;DHT22;34485;51.536;3.816;2022-11-09T01:28:49;12.50;99.90
48686;DHT22;34485;51.536;3.816;2022-11-09T01:31:17;12.60;99.90
48686;DHT22;34485;51.536;3.816;2022-11-09T01:33:43;12.60;99.90
48686;DHT22;34485;51.536;3.816;2022-11-09T01:36:12;12.70;99.90
48686;DHT22;34485;51.536;3.816;2022-11-09T01:38:38;12.70;99.90
48686;DHT22;34485;51.536;3.816;2022-11-09T01:41:05;12.70;99.90
48686;DHT22;34485;51.536;3.816;2022-11-09T01:43:31;12.80;99.90
48686;DHT22;34485;51.536;3.816;2022-11-09T01:49:01;12.70;99.90
48686;DHT22;34485;51.536;3.816;2022-11-09T01:51:38;12.70;99.90
48686;DHT22;34485;51.536;3.816;2022-11-09T01:54:12;12.80;99.90
48686;DHT22;34485;51.536;3.816;2022-11-09T01:56:38;12.70;99.90
48686;DHT22;34485;51.536;3.816;2022-11-09T01:59:07;12.70;99.90
48686;DHT22;34485;51.536;3.816;2022-11-09T02:01:34;12.70;99.90
48686;DHT22;34485;51.536;3.816;2022-11-09T02:04:07;12.70;99.90
48686;DHT22;34485;51.536;3.816;2022-11-09T02:06:35;12.60;99.90
48686;DHT22;34485;51.536;3.816;2022-11-09T02:09:30;12.60;99.90
48686;DHT22;34485;51.536;3.816;2022-11-09T02:11:56;12.60;99.90
48686;DHT22;34485;51.536;3.816;2022-11-09T02:14:24;12.50;99.90
48686;DHT22;34485;51.536;3.816;2022-11-09T02:16:51;12.50;99.90
48686;DHT22;34485;51.536;3.816;2022-11-09T02:19:16;12.30;99.90
48686;DHT22;34485;51.536;3.816;2022-11-09T02:21:42;12.30;99.90
48686;DHT22;34485;51.536;3.816;2022-11-09T02:24:07;12.20;99.90
48686;DHT22;34485;51.536;3.816;2022-11-09T02:26:40;12.20;99.90
48686;DHT22;34485;51.536;3.816;2022-11-09T02:29:09;12.20;99.90
48686;DHT22;34485;51.536;3.816;2022-11-09T02:31:41;12.20;99.90
48686;DHT22;34485;51.536;3.816;2022-11-09T02:34:13;12.20;99.90
48686;DHT22;34485;51.536;3.816;2022-11-09T02:36:40;12.10;99.90
48686;DHT22;34485;51.536;3.816;2022-11-09T02:39:08;12.10;99.90
48686;DHT22;34485;51.536;3.816;2022-11-09T02:41:42;12.10;99.90
48686;DHT22;34485;51.536;3.816;2022-11-09T02:44:08;12.00;99.90
48686;DHT22;34485;51.536;3.816;2022-11-09T02:46:35;12.00;99.90
48686;DHT22;34485;51.536;3.816;2022-11-09T02:49:02;11.90;99.90
48686;DHT22;34485;51.536;3.816;2022-11-09T02:51:28;11.90;99.90
48686;DHT22;34485;51.536;3.816;2022-11-09T02:53:54;11.90;99.90
48686;DHT22;34485;51.536;3.816;2022-11-09T02:56:20;11.90;99.90
48686;DHT22;34485;51.536;3.816;2022-11-09T02:58:45;11.90;99.90
48686;DHT22;34485;51.536;3.816;2022-11-09T03:01:11;12.00;99.90
48686;DHT22;34485;51.536;3.816;2022-11-09T03:06:03;12.00;99.90
48686;DHT22;34485;51.536;3.816;2022-11-09T03:08:28;12.00;99.90
48686;DHT22;34485;51.536;3.816;2022-11-09T03:10:54;12.00;99.90
48686;DHT22;34485;51.536;3.816;2022-11-09T03:13:20;12.00;99.90
48686;DHT22;34485;51.536;3.816;2022-11-09T03:15:45;11.90;99.90
48686;DHT22;34485;51.536;3.816;2022-11-09T03:18:11;11.90;99.90
48686;DHT22;34485;51.536;3.816;2022-11-09T03:20:36;11.90;99.90
48686;DHT22;34485;51.536;3.816;2022-11-09T03:23:02;11.90;99.90
48686;DHT22;34485;51.536;3.816;2022-11-09T03:25:28;11.90;99.90
48686;DHT22;34485;51.536;3.816;2022-11-09T03:27:58;11.90;99.90
48686;DHT22;34485;51.536;3.816;2022-11-09T03:30:24;11.90;99.90
48686;DHT22;34485;51.536;3.816;2022-11-09T03:32:50;12.00;99.90
48686;DHT22;34485;51.536;3.816;2022-11-09T03:35:15;11.90;99.90
48686;DHT22;34485;51.536;3.816;2022-11-09T03:37:41;11.90;99.90
48686;DHT22;34485;51.536;3.816;2022-11-09T03:40:07;11.80;99.90
48686;DHT22;34485;51.536;3.816;2022-11-09T03:42:33;11.80;99.90
48686;DHT22;34485;51.536;3.816;2022-11-09T03:44:58;11.80;99.90
48686;DHT22;34485;51.536;3.816;2022-11-09T03:47:24;11.70;99.90
48686;DHT22;34485;51.536;3.816;2022-11-09T03:49:49;11.70;99.90
48686;DHT22;34485;51.536;3.816;2022-11-09T03:52:15;11.70;99.90
48686;DHT22;34485;51.536;3.816;2022-11-09T03:54:40;11.70;99.90
48686;DHT22;34485;51.536;3.816;2022-11-09T03:57:06;11.70;99.90
48686;DHT22;34485;51.536;3.816;2022-11-09T03:59:31;11.70;99.90
48686;DHT22;34485;51.536;3.816;2022-11-09T04:01:57;11.80;99.90
48686;DHT22;34485;51.536;3.816;2022-11-09T04:04:23;11.80;99.90
48686;DHT22;34485;51.536;3.816;2022-11-09T04:06:48;11.80;99.90
48686;DHT22;34485;51.536;3.816;2022-11-09T04:09:14;11.80;99.90
48686;DHT22;34485;51.536;3.816;2022-11-09T04:11:39;11.70;99.90
48686;DHT22;34485;51.536;3.816;2022-11-09T04:14:05;11.70;99.90
48686;DHT22;34485;51.536;3.816;2022-11-09T04:16:30;11.70;99.90
48686;DHT22;34485;51.536;3.816;2022-11-09T04:18:57;11.80;99.90
48686;DHT22;34485;51.536;3.816;2022-11-09T04:21:23;11.80;99.90
48686;DHT22;34485;51.536;3.816;2022-11-09T04:23:48;11.90;99.90
48686;DHT22;34485;51.536;3.816;2022-11-09T04:26:14;11.90;99.90
48686;DHT22;34485;51.536;3.816;2022-11-09T04:28:39;11.90;99.90
48686;DHT22;34485;51.536;3.816;2022-11-09T04:31:05;11.90;99.90
48686;DHT22;34485;51.536;3.816;2022-11-09T04:33:30;11.90;99.90
48686;DHT22;34485;51.536;3.816;2022-11-09T04:36:03;11.80;99.90
48686;DHT22;34485;51.536;3.816;2022-11-09T04:38:29;11.80;99.90
48686;DHT22;34485;51.536;3.816;2022-11-09T04:40:59;11.70;99.90
48686;DHT22;34485;51.536;3.816;2022-11-09T04:43:25;11.70;99.90
48686;DHT22;34485;51.536;3.816;2022-11-09T04:45:50;11.70;99.90
48686;DHT22;34485;51.536;3.816;2022-11-09T04:48:16;11.80;99.90
48686;DHT22;34485;51.536;3.816;2022-11-09T04:50:41;11.80;99.90
48686;DHT22;34485;51.536;3.816;2022-11-09T04:53:09;11.70;99.90
48686;DHT22;34485;51.536;3.816;2022-11-09T04:55:36;11.70;99.90
48686;DHT22;34485;51.536;3.816;2022-11-09T04:58:02;11.60;99.90
48686;DHT22;34485;51.536;3.816;2022-11-09T05:00:28;11.60;99.90
48686;DHT22;34485;51.536;3.816;2022-11-09T05:02:54;11.60;99.90
48686;DHT22;34485;51.536;3.816;2022-11-09T05:05:19;11.50;99.90
48686;DHT22;34485;51.536;3.816;2022-11-09T05:07:45;11.50;99.90
48686;DHT22;34485;51.536;3.816;2022-11-09T05:10:10;11.40;99.90
48686;DHT22;34485;51.536;3.816;2022-11-09T05:12:36;11.40;99.90
48686;DHT22;34485;51.536;3.816;2022-11-09T05:15:02;11.40;99.90
48686;DHT22;34485;51.536;3.816;2022-11-09T05:17:27;11.40;99.90
48686;DHT22;34485;51.536;3.816;2022-11-09T05:19:53;11.40;99.90
48686;DHT22;34485;51.536;3.816;2022-11-09T05:22:18;11.40;99.90
48686;DHT22;34485;51.536;3.816;2022-11-09T05:25:03;11.50;99.90
48686;DHT22;34485;51.536;3.816;2022-11-09T05:27:28;11.50;99.90
48686;DHT22;34485;51.536;3.816;2022-11-09T05:29:54;11.50;99.90
48686;DHT22;34485;51.536;3.816;2022-11-09T05:32:19;11.40;99.90
48686;DHT22;34485;51.536;3.816;2022-11-09T05:34:45;11.40;99.90
48686;DHT22;34485;51.536;3.816;2022-11-09T05:37:10;11.40;99.90
48686;DHT22;34485;51.536;3.816;2022-11-09T05:39:37;11.30;99.90
48686;DHT22;34485;51.536;3.816;2022-11-09T05:42:02;11.30;99.90
48686;DHT22;34485;51.536;3.816;2022-11-09T05:44:28;11.30;99.90
48686;DHT22;34485;51.536;3.816;2022-11-09T05:46:53;11.30;99.90
48686;DHT22;34485;51.536;3.816;2022-11-09T05:49:19;11.30;99.90
48686;DHT22;34485;51.536;3.816;2022-11-09T05:51:44;11.30;99.90
48686;DHT22;34485;51.536;3.816;2022-11-09T05:54:10;11.30;99.90
48686;DHT22;34485;51.536;3.816;2022-11-09T05:56:36;11.30;99.90
48686;DHT22;34485;51.536;3.816;2022-11-09T05:59:01;11.30;99.90
48686;DHT22;34485;51.536;3.816;2022-11-09T06:01:27;11.30;99.90
48686;DHT22;34485;51.536;3.816;2022-11-09T06:03:53;11.20;99.90
48686;DHT22;34485;51.536;3.816;2022-11-09T06:06:19;11.20;99.90
48686;DHT22;34485;51.536;3.816;2022-11-09T06:08:44;11.10;99.90
48686;DHT22;34485;51.536;3.816;2022-11-09T06:11:11;11.10;99.90
48686;DHT22;34485;51.536;3.816;2022-11-09T06:13:38;11.10;99.90
48686;DHT22;34485;51.536;3.816;2022-11-09T06:16:04;11.10;99.90
48686;DHT22;34485;51.536;3.816;2022-11-09T06:18:32;11.20;99.90
48686;DHT22;34485;51.536;3.816;2022-11-09T06:21:00;11.20;99.90
48686;DHT22;34485;51.536;3.816;2022-11-09T06:23:26;11.20;99.90
48686;DHT22;34485;51.536;3.816;2022-11-09T06:25:58;11.20;99.90
48686;DHT22;34485;51.536;3.816;2022-11-09T06:28:24;11.20;99.90
48686;DHT22;34485;51.536;3.816;2022-11-09T06:30:49;11.10;99.90
48686;DHT22;34485;51.536;3.816;2022-11-09T06:33:15;11.10;99.90
48686;DHT22;34485;51.536;3.816;2022-11-09T06:35:41;11.20;99.90
48686;DHT22;34485;51.536;3.816;2022-11-09T06:38:08;11.20;99.90
48686;DHT22;34485;51.536;3.816;2022-11-09T06:40:34;11.30;99.90
48686;DHT22;34485;51.536;3.816;2022-11-09T06:43:02;11.20;99.90
48686;DHT22;34485;51.536;3.816;2022-11-09T06:45:28;11.30;99.90
48686;DHT22;34485;51.536;3.816;2022-11-09T06:47:56;11.30;99.90
48686;DHT22;34485;51.536;3.816;2022-11-09T06:50:21;11.30;99.90
48686;DHT22;34485;51.536;3.816;2022-11-09T06:52:47;11.30;99.90
48686;DHT22;34485;51.536;3.816;2022-11-09T06:55:13;11.30;99.90
48686;DHT22;34485;51.536;3.816;2022-11-09T06:57:38;11.20;99.90
48686;DHT22;34485;51.536;3.816;2022-11-09T07:00:05;11.20;99.90
48686;DHT22;34485;51.536;3.816;2022-11-09T07:02:32;11.20;99.90
48686;DHT22;34485;51.536;3.816;2022-11-09T07:04:57;11.10;99.90
48686;DHT22;34485;51.536;3.816;2022-11-09T07:07:23;11.10;99.90
48686;DHT22;34485;51.536;3.816;2022-11-09T07:09:48;11.20;99.90
48686;DHT22;34485;51.536;3.816;2022-11-09T07:12:14;11.10;99.90
48686;DHT22;34485;51.536;3.816;2022-11-09T07:14:40;11.20;99.90
48686;DHT22;34485;51.536;3.816;2022-11-09T07:17:05;11.20;99.90
48686;DHT22;34485;51.536;3.816;2022-11-09T07:19:31;11.10;99.90
48686;DHT22;34485;51.536;3.816;2022-11-09T07:26:49;11.40;99.90
48686;DHT22;34485;51.536;3.816;2022-11-09T07:29:15;11.20;99.90
48686;DHT22;34485;51.536;3.816;2022-11-09T07:31:40;11.20;99.90
48686;DHT22;34485;51.536;3.816;2022-11-09T07:34:06;11.20;99.90
48686;DHT22;34485;51.536;3.816;2022-11-09T07:36:32;11.20;99.90
48686;DHT22;34485;51.536;3.816;2022-11-09T07:38:58;11.20;99.90
48686;DHT22;34485;51.536;3.816;2022-11-09T07:41:24;11.30;99.90
48686;DHT22;34485;51.536;3.816;2022-11-09T07:43:49;11.30;99.90
48686;DHT22;34485;51.536;3.816;2022-11-09T07:46:15;11.40;99.90
48686;DHT22;34485;51.536;3.816;2022-11-09T07:48:41;11.50;99.90
48686;DHT22;34485;51.536;3.816;2022-11-09T07:51:07;11.40;99.90
48686;DHT22;34485;51.536;3.816;2022-11-09T07:53:32;11.50;99.90
48686;DHT22;34485;51.536;3.816;2022-11-09T07:56:00;11.60;99.90
48686;DHT22;34485;51.536;3.816;2022-11-09T07:58:26;11.70;99.90
48686;DHT22;34485;51.536;3.816;2022-11-09T08:00:52;11.70;99.90
48686;DHT22;34485;51.536;3.816;2022-11-09T08:03:19;11.80;99.90
48686;DHT22;34485;51.536;3.816;2022-11-09T08:05:46;11.80;99.90
48686;DHT22;34485;51.536;3.816;2022-11-09T08:08:12;11.80;99.90
48686;DHT22;34485;51.536;3.816;2022-11-09T08:10:38;11.90;99.90
48686;DHT22;34485;51.536;3.816;2022-11-09T08:13:06;12.00;99.90
48686;DHT22;34485;51.536;3.816;2022-11-09T08:15:33;12.10;99.90
48686;DHT22;34485;51.536;3.816;2022-11-09T08:18:02;12.10;99.90
48686;DHT22;34485;51.536;3.816;2022-11-09T08:20:28;12.20;99.90
48686;DHT22;34485;51.536;3.816;2022-11-09T08:22:55;12.20;99.90
48686;DHT22;34485;51.536;3.816;2022-11-09T08:25:20;12.10;99.90
48686;DHT22;34485;51.536;3.816;2022-11-09T08:27:46;12.10;99.90
48686;DHT22;34485;51.536;3.816;2022-11-09T08:30:15;12.10;99.90
48686;DHT22;34485;51.536;3.816;2022-11-09T08:32:42;12.20;99.90
48686;DHT22;34485;51.536;3.816;2022-11-09T08:35:10;12.20;99.90
48686;DHT22;34485;51.536;3.816;2022-11-09T08:37:37;12.20;99.90
48686;DHT22;34485;51.536;3.816;2022-11-09T08:40:04;12.30;99.90
48686;DHT22;34485;51.536;3.816;2022-11-09T08:42:30;12.40;99.90
48686;DHT22;34485;51.536;3.816;2022-11-09T08:44:56;12.40;99.90
48686;DHT22;34485;51.536;3.816;2022-11-09T08:47:21;12.50;99.90
48686;DHT22;34485;51.536;3.816;2022-11-09T08:49:47;12.70;99.90
48686;DHT22;34485;51.536;3.816;2022-11-09T08:52:14;12.70;99.90
48686;DHT22;34485;51.536;3.816;2022-11-09T08:54:40;12.70;99.90
48686;DHT22;34485;51.536;3.816;2022-11-09T08:57:05;12.90;99.90
48686;DHT22;34485;51.536;3.816;2022-11-09T08:59:31;12.90;99.90
48686;DHT22;34485;51.536;3.816;2022-11-09T09:01:57;12.80;99.90
48686;DHT22;34485;51.536;3.816;2022-11-09T09:06:49;13.30;99.90
48686;DHT22;34485;51.536;3.816;2022-11-09T09:09:14;13.60;99.90
48686;DHT22;34485;51.536;3.816;2022-11-09T09:11:40;13.90;99.90
48686;DHT22;34485;51.536;3.816;2022-11-09T09:14:05;14.10;99.90
48686;DHT22;34485;51.536;3.816;2022-11-09T09:16:31;14.10;99.90
48686;DHT22;34485;51.536;3.816;2022-11-09T09:18:57;14.10;99.90
48686;DHT22;34485;51.536;3.816;2022-11-09T09:21:24;14.30;99.90
48686;DHT22;34485;51.536;3.816;2022-11-09T09:23:49;14.60;99.90
48686;DHT22;34485;51.536;3.816;2022-11-09T09:26:16;15.00;99.90
48686;DHT22;34485;51.536;3.816;2022-11-09T09:28:41;15.10;99.90
48686;DHT22;34485;51.536;3.816;2022-11-09T09:31:07;14.80;99.90
48686;DHT22;34485;51.536;3.816;2022-11-09T09:33:33;14.40;99.90
48686;DHT22;34485;51.536;3.816;2022-11-09T09:35:59;14.00;99.90
48686;DHT22;34485;51.536;3.816;2022-11-09T09:38:25;13.80;99.90
48686;DHT22;34485;51.536;3.816;2022-11-09T09:41:03;13.60;99.90
48686;DHT22;34485;51.536;3.816;2022-11-09T09:43:42;13.50;99.90
48686;DHT22;34485;51.536;3.816;2022-11-09T09:46:34;13.30;99.90
48686;DHT22;34485;51.536;3.816;2022-11-09T09:49:17;13.20;99.90
48686;DHT22;34485;51.536;3.816;2022-11-09T09:52:36;13.20;99.90
48686;DHT22;34485;51.536;3.816;2022-11-09T09:54:42;13.30;99.90
48686;DHT22;34485;51.536;3.816;2022-11-09T09:57:18;13.30;99.90
48686;DHT22;34485;51.536;3.816;2022-11-09T09:59:49;13.30;99.90
48686;DHT22;34485;51.536;3.816;2022-11-09T10:02:24;13.30;99.90
48686;DHT22;34485;51.536;3.816;2022-11-09T10:04:55;13.20;99.90
48686;DHT22;34485;51.536;3.816;2022-11-09T10:07:37;13.10;99.90
48686;DHT22;34485;51.536;3.816;2022-11-09T10:26:55;11.60;99.90
48686;DHT22;34485;51.536;3.816;2022-11-09T10:29:41;11.40;99.90
48686;DHT22;34485;51.536;3.816;2022-11-09T10:32:13;11.10;99.90
48686;DHT22;34485;51.536;3.816;2022-11-09T10:34:53;10.90;99.90
48686;DHT22;34485;51.536;3.816;2022-11-09T10:37:37;10.80;99.90
48686;DHT22;34485;51.536;3.816;2022-11-09T10:42:54;11.00;99.90
48686;DHT22;34485;51.536;3.816;2022-11-09T10:45:35;11.10;99.90
48686;DHT22;34485;51.536;3.816;2022-11-09T10:48:04;11.30;99.90
48686;DHT22;34485;51.536;3.816;2022-11-09T10:50:39;11.40;99.90
48686;DHT22;34485;51.536;3.816;2022-11-09T10:53:18;11.50;99.90
48686;DHT22;34485;51.536;3.816;2022-11-09T11:03:36;12.40;99.90
48686;DHT22;34485;51.536;3.816;2022-11-09T11:06:44;12.60;99.90
48686;DHT22;34485;51.536;3.816;2022-11-09T11:09:14;12.70;99.90
48686;DHT22;34485;51.536;3.816;2022-11-09T11:11:40;12.80;99.90
48686;DHT22;34485;51.536;3.816;2022-11-09T11:14:29;12.90;99.90
48686;DHT22;34485;51.536;3.816;2022-11-09T11:16:55;13.00;99.90
48686;DHT22;34485;51.536;3.816;2022-11-09T11:19:40;13.00;99.90
48686;DHT22;34485;51.536;3.816;2022-11-09T11:24:53;13.00;99.90
48686;DHT22;34485;51.536;3.816;2022-11-09T11:27:39;13.00;99.90
48686;DHT22;34485;51.536;3.816;2022-11-09T11:30:16;13.00;99.90
48686;DHT22;34485;51.536;3.816;2022-11-09T11:32:44;13.00;99.90
48686;DHT22;34485;51.536;3.816;2022-11-09T11:35:33;13.10;99.90
48686;DHT22;34485;51.536;3.816;2022-11-09T11:38:28;13.10;99.90
48686;DHT22;34485;51.536;3.816;2022-11-09T11:44:07;13.10;99.90
48686;DHT22;34485;51.536;3.816;2022-11-09T11:46:57;13.10;99.90
48686;DHT22;34485;51.536;3.816;2022-11-09T11:49:38;13.10;99.90
48686;DHT22;34485;51.536;3.816;2022-11-09T12:01:38;13.20;99.90
48686;DHT22;34485;51.536;3.816;2022-11-09T12:04:50;13.20;99.90
48686;DHT22;34485;51.536;3.816;2022-11-09T12:10:34;13.40;99.90
48686;DHT22;34485;51.536;3.816;2022-11-09T12:18:29;13.40;99.90
48686;DHT22;34485;51.536;3.816;2022-11-09T12:21:23;13.40;99.90
48686;DHT22;34485;51.536;3.816;2022-11-09T12:32:45;13.60;99.90
48686;DHT22;34485;51.536;3.816;2022-11-09T12:35:43;13.50;99.90
48686;DHT22;34485;51.536;3.816;2022-11-09T12:38:34;13.40;99.90
48686;DHT22;34485;51.536;3.816;2022-11-09T12:41:13;13.50;99.90
48686;DHT22;34485;51.536;3.816;2022-11-09T12:43:50;13.50;99.90
48686;DHT22;34485;51.536;3.816;2022-11-09T12:46:19;13.50;99.90
48686;DHT22;34485;51.536;3.816;2022-11-09T12:48:47;13.50;99.90
48686;DHT22;34485;51.536;3.816;2022-11-09T12:51:13;13.50;99.90
48686;DHT22;34485;51.536;3.816;2022-11-09T12:53:40;13.50;99.90
48686;DHT22;34485;51.536;3.816;2022-11-09T12:58:42;13.70;99.90
48686;DHT22;34485;51.536;3.816;2022-11-09T13:01:13;13.70;99.90
48686;DHT22;34485;51.536;3.816;2022-11-09T13:04:02;13.70;99.90
48686;DHT22;34485;51.536;3.816;2022-11-09T13:06:32;13.60;99.90
48686;DHT22;34485;51.536;3.816;2022-11-09T13:09:03;13.60;99.90
48686;DHT22;34485;51.536;3.816;2022-11-09T13:11:39;13.50;99.90
48686;DHT22;34485;51.536;3.816;2022-11-09T13:24:58;13.60;99.90
48686;DHT22;34485;51.536;3.816;2022-11-09T13:38:20;13.80;99.90
48686;DHT22;34485;51.536;3.816;2022-11-09T13:40:49;13.70;99.90
48686;DHT22;34485;51.536;3.816;2022-11-09T13:43:29;13.80;99.90
48686;DHT22;34485;51.536;3.816;2022-11-09T13:45:57;13.80;99.90
48686;DHT22;34485;51.536;3.816;2022-11-09T13:48:31;13.80;99.90
48686;DHT22;34485;51.536;3.816;2022-11-09T13:50:59;13.80;99.90
48686;DHT22;34485;51.536;3.816;2022-11-09T13:56:22;13.80;99.90
48686;DHT22;34485;51.536;3.816;2022-11-09T13:58:48;13.90;99.90
48686;DHT22;34485;51.536;3.816;2022-11-09T14:01:35;14.10;99.90
48686;DHT22;34485;51.536;3.816;2022-11-09T14:06:47;14.30;99.90
48686;DHT22;34485;51.536;3.816;2022-11-09T14:09:18;14.20;99.90
48686;DHT22;34485;51.536;3.816;2022-11-09T14:12:06;14.10;99.90
48686;DHT22;34485;51.536;3.816;2022-11-09T14:17:42;13.90;99.90
48686;DHT22;34485;51.536;3.816;2022-11-09T14:20:33;13.90;99.90
48686;DHT22;34485;51.536;3.816;2022-11-09T14:23:01;13.90;99.90
48686;DHT22;34485;51.536;3.816;2022-11-09T14:25:28;13.90;99.90
48686;DHT22;34485;51.536;3.816;2022-11-09T14:27:56;13.90;99.90
48686;DHT22;34485;51.536;3.816;2022-11-09T14:30:25;13.90;99.90
48686;DHT22;34485;51.536;3.816;2022-11-09T14:32:52;13.90;99.90
48686;DHT22;34485;51.536;3.816;2022-11-09T14:37:49;13.80;99.90
48686;DHT22;34485;51.536;3.816;2022-11-09T14:42:54;13.70;99.90
48686;DHT22;34485;51.536;3.816;2022-11-09T14:45:21;13.70;99.90
48686;DHT22;34485;51.536;3.816;2022-11-09T14:47:49;13.70;99.90
48686;DHT22;34485;51.536;3.816;2022-11-09T14:50:20;13.70;99.90
48686;DHT22;34485;51.536;3.816;2022-11-09T14:52:46;13.70;99.90
48686;DHT22;34485;51.536;3.816;2022-11-09T14:55:14;13.70;99.90
48686;DHT22;34485;51.536;3.816;2022-11-09T14:57:40;13.70;99.90
48686;DHT22;34485;51.536;3.816;2022-11-09T15:00:31;13.60;99.90
48686;DHT22;34485;51.536;3.816;2022-11-09T15:02:59;13.60;99.90
48686;DHT22;34485;51.536;3.816;2022-11-09T15:05:29;13.60;99.90
48686;DHT22;34485;51.536;3.816;2022-11-09T15:07:55;13.50;99.90
48686;DHT22;34485;51.536;3.816;2022-11-09T15:10:20;13.50;99.90
48686;DHT22;34485;51.536;3.816;2022-11-09T15:12:49;13.50;99.90
48686;DHT22;34485;51.536;3.816;2022-11-09T15:15:20;13.50;99.90
48686;DHT22;34485;51.536;3.816;2022-11-09T15:17:46;13.40;99.90
48686;DHT22;34485;51.536;3.816;2022-11-09T15:33:26;13.30;99.90
48686;DHT22;34485;51.536;3.816;2022-11-09T15:38:43;13.30;99.90
48686;DHT22;34485;51.536;3.816;2022-11-09T15:41:15;13.20;99.90
48686;DHT22;34485;51.536;3.816;2022-11-09T15:43:41;13.10;99.90
48686;DHT22;34485;51.536;3.816;2022-11-09T15:46:14;13.10;99.90
48686;DHT22;34485;51.536;3.816;2022-11-09T15:48:40;13.00;99.90
48686;DHT22;34485;51.536;3.816;2022-11-09T15:51:06;12.90;99.90
48686;DHT22;34485;51.536;3.816;2022-11-09T15:53:32;12.90;99.90
48686;DHT22;34485;51.536;3.816;2022-11-09T15:55:59;12.80;99.90
48686;DHT22;34485;51.536;3.816;2022-11-09T15:58:24;12.80;99.90
48686;DHT22;34485;51.536;3.816;2022-11-09T16:00:50;12.70;99.90
48686;DHT22;34485;51.536;3.816;2022-11-09T16:03:15;12.70;99.90
48686;DHT22;34485;51.536;3.816;2022-11-09T16:05:43;12.70;99.90
48686;DHT22;34485;51.536;3.816;2022-11-09T16:08:09;12.70;99.90
48686;DHT22;34485;51.536;3.816;2022-11-09T16:10:34;12.70;99.90
48686;DHT22;34485;51.536;3.816;2022-11-09T16:13:05;12.70;99.90
48686;DHT22;34485;51.536;3.816;2022-11-09T16:15:32;12.70;99.90
48686;DHT22;34485;51.536;3.816;2022-11-09T16:17:58;12.70;99.90
48686;DHT22;34485;51.536;3.816;2022-11-09T16:20:24;12.70;99.90
48686;DHT22;34485;51.536;3.816;2022-11-09T16:22:50;12.70;99.90
48686;DHT22;34485;51.536;3.816;2022-11-09T16:25:15;12.70;99.90
48686;DHT22;34485;51.536;3.816;2022-11-09T16:27:42;12.60;99.90
48686;DHT22;34485;51.536;3.816;2022-11-09T16:33:30;12.50;99.90
48686;DHT22;34485;51.536;3.816;2022-11-09T16:35:59;12.40;99.90
48686;DHT22;34485;51.536;3.816;2022-11-09T16:38:30;12.40;99.90
48686;DHT22;34485;51.536;3.816;2022-11-09T16:40:58;12.40;99.90
48686;DHT22;34485;51.536;3.816;2022-11-09T16:43:24;12.30;99.90
48686;DHT22;34485;51.536;3.816;2022-11-09T16:45:50;12.30;99.90
48686;DHT22;34485;51.536;3.816;2022-11-09T16:48:16;12.30;99.90
48686;DHT22;34485;51.536;3.816;2022-11-09T16:50:43;12.30;99.90
48686;DHT22;34485;51.536;3.816;2022-11-09T16:53:09;12.30;99.90
48686;DHT22;34485;51.536;3.816;2022-11-09T16:55:35;12.30;99.90
48686;DHT22;34485;51.536;3.816;2022-11-09T16:58:01;12.40;99.90
48686;DHT22;34485;51.536;3.816;2022-11-09T17:00:27;12.40;99.90
48686;DHT22;34485;51.536;3.816;2022-11-09T17:02:53;12.50;99.90
48686;DHT22;34485;51.536;3.816;2022-11-09T17:05:18;12.50;99.90
48686;DHT22;34485;51.536;3.816;2022-11-09T17:07:46;12.40;99.90
48686;DHT22;34485;51.536;3.816;2022-11-09T17:10:12;12.40;99.90
48686;DHT22;34485;51.536;3.816;2022-11-09T17:12:38;12.50;99.90
48686;DHT22;34485;51.536;3.816;2022-11-09T17:15:04;12.50;99.90
48686;DHT22;34485;51.536;3.816;2022-11-09T17:17:30;12.50;99.90
48686;DHT22;34485;51.536;3.816;2022-11-09T17:19:55;12.40;99.90
48686;DHT22;34485;51.536;3.816;2022-11-09T17:22:21;12.40;99.90
48686;DHT22;34485;51.536;3.816;2022-11-09T17:24:46;12.30;99.90
48686;DHT22;34485;51.536;3.816;2022-11-09T17:27:12;12.20;99.90
48686;DHT22;34485;51.536;3.816;2022-11-09T17:29:38;12.20;99.90
48686;DHT22;34485;51.536;3.816;2022-11-09T17:32:06;12.00;99.90
48686;DHT22;34485;51.536;3.816;2022-11-09T17:34:32;12.00;99.90
48686;DHT22;34485;51.536;3.816;2022-11-09T17:36:58;12.00;99.90
48686;DHT22;34485;51.536;3.816;2022-11-09T17:39:24;12.00;99.90
48686;DHT22;34485;51.536;3.816;2022-11-09T17:41:49;11.90;99.90
48686;DHT22;34485;51.536;3.816;2022-11-09T17:44:15;11.80;99.90
48686;DHT22;34485;51.536;3.816;2022-11-09T17:46:41;11.80;99.90
48686;DHT22;34485;51.536;3.816;2022-11-09T17:49:07;11.70;99.90
48686;DHT22;34485;51.536;3.816;2022-11-09T17:51:32;11.70;99.90